Time;durP1;ratioP1;P1;durP2;ratioP2;P2;SDS_P1;SDS_P2;PMS_P1;PMS_P2;Temp;Humidity;BMP_temperature;BMP_pressure;BME280_temperature;BME280_humidity;BME280_pressure;Samples;Min_cycle;Max_cycle;Signal;HPM_P1;HPM_P2
2022/11/20 00:02:16;;;;;;;;;;;;;;;;;;5113746;28;19920;-85
2022/11/20 00:04:42;;;;;;;;;;;;;;;;;;5115725;28;19924;-85
2022/11/20 00:07:08;;;;;;;;;;;;;;;;;;5115643;28;20415;-85
2022/11/20 00:09:34;;;;;;;;;;;;;;;;;;5115320;28;19967;-85
2022/11/20 00:12:00;;;;;;;;;;;;;;;;;;5115465;28;19978;-85
2022/11/20 00:14:26;;;;;;;;;;;;;;;;;;5115198;28;19920;-84
2022/11/20 00:16:52;;;;;;;;;;;;;;;;;;5115024;28;19919;-84
2022/11/20 00:19:17;;;;;;;;;;;;;;;;;;5114852;28;19942;-85
2022/11/20 00:21:43;;;;;;;;;;;;;;;;;;5115051;28;19920;-84
2022/11/20 00:24:12;;;;;;;;;;;;;;;;;;5115384;28;20304;-85
2022/11/20 00:26:38;;;;;;;;;;;;;;;;;;5114941;28;19967;-86
2022/11/20 00:29:04;;;;;;;;;;;;;;;;;;5114758;28;19919;-84
2022/11/20 00:31:30;;;;;;;;;;;;;;;;;;5114924;28;19931;-85
2022/11/20 00:33:56;;;;;;;;;;;;;;;;;;5114829;28;20332;-85
2022/11/20 00:36:22;;;;;;;;;;;;;;;;;;5115044;28;20382;-85
2022/11/20 00:38:48;;;;;;;;;;;;;;;;;;5114774;28;19927;-84
2022/11/20 00:41:14;;;;;;;;;;;;;;;;;;5114764;28;19923;-85
2022/11/20 00:43:39;;;;;;;;;;;;;;;;;;5114731;28;19927;-85
2022/11/20 00:46:05;;;;;;;;;;;;;;;;;;5114359;28;19920;-85
2022/11/20 00:48:33;;;;;;;;;;;;;;;;;;5114484;28;19919;-85
2022/11/20 00:50:59;;;;;;;;;;;;;;;;;;5114291;28;19924;-85
2022/11/20 00:53:25;;;;;;;;;;;;;;;;;;5097367;28;19924;-86
2022/11/20 00:55:51;;;;;;;;;;;;;;;;;;5114374;28;20378;-85
2022/11/20 00:58:16;;;;;;;;;;;;;;;;;;5114325;28;19955;-85
2022/11/20 01:00:42;;;;;;;;;;;;;;;;;;5114300;28;20003;-85
2022/11/20 01:03:08;;;;;;;;;;;;;;;;;;5097270;28;19926;-86
2022/11/20 01:05:34;;;;;;;;;;;;;;;;;;5113978;28;19919;-85
2022/11/20 01:08:00;;;;;;;;;;;;;;;;;;5113990;28;20286;-85
2022/11/20 01:10:26;;;;;;;;;;;;;;;;;;5114130;28;19920;-85
2022/11/20 01:13:36;;;;;;;;;;;;;;;;;;5113049;28;20337;-85
2022/11/20 01:15:38;;;;;;;;;;;;;;;;;;5113896;28;19920;-85
2022/11/20 01:18:05;;;;;;;;;;;;;;;;;;5113893;28;19926;-85
2022/11/20 01:20:30;;;;;;;;;;;;;;;;;;5114242;28;20294;-85
2022/11/20 01:22:56;;;;;;;;;;;;;;;;;;5113966;28;19919;-85
2022/11/20 01:25:22;;;;;;;;;;;;;;;;;;5113454;28;19926;-85
2022/11/20 01:27:48;;;;;;;;;;;;;;;;;;5096580;28;20347;-85
2022/11/20 01:30:14;;;;;;;;;;;;;;;;;;5113784;28;20006;-85
2022/11/20 01:32:40;;;;;;;;;;;;;;;;;;5113424;28;19931;-85
2022/11/20 01:35:06;;;;;;;;;;;;;;;;;;5113394;28;19919;-85
2022/11/20 01:37:32;;;;;;;;;;;;;;;;;;5113515;28;19919;-86
2022/11/20 01:39:58;;;;;;;;;;;;;;;;;;5113617;28;19920;-86
2022/11/20 01:45:08;;;;;;;;;;;;;;;;;;5113293;28;19921;-86
2022/11/20 01:47:34;;;;;;;;;;;;;;;;;;5113377;28;19926;-85
2022/11/20 01:50:00;;;;;;;;;;;;;;;;;;5113085;28;19924;-85
2022/11/20 01:52:26;;;;;;;;;;;;;;;;;;5113414;28;19923;-85
2022/11/20 01:54:52;;;;;;;;;;;;;;;;;;5112983;28;19928;-86
2022/11/20 01:57:18;;;;;;;;;;;;;;;;;;5095994;28;19927;-85
2022/11/20 01:59:43;;;;;;;;;;;;;;;;;;5112859;28;20361;-86
2022/11/20 02:02:09;;;;;;;;;;;;;;;;;;5095930;28;19928;-85
2022/11/20 02:04:35;;;;;;;;;;;;;;;;;;5096071;28;20374;-85
2022/11/20 02:07:01;;;;;;;;;;;;;;;;;;5096126;28;19920;-85
2022/11/20 02:09:27;;;;;;;;;;;;;;;;;;5113298;28;19919;-86
2022/11/20 02:11:53;;;;;;;;;;;;;;;;;;5095909;28;19927;-86
2022/11/20 02:14:19;;;;;;;;;;;;;;;;;;5095619;28;19920;-85
2022/11/20 02:16:45;;;;;;;;;;;;;;;;;;5113138;28;19920;-85
2022/11/20 02:19:11;;;;;;;;;;;;;;;;;;5113001;28;20347;-86
2022/11/20 02:21:37;;;;;;;;;;;;;;;;;;5095636;28;19919;-85
2022/11/20 02:24:02;;;;;;;;;;;;;;;;;;5112456;28;20362;-85
2022/11/20 02:26:28;;;;;;;;;;;;;;;;;;5112649;28;19920;-85
2022/11/20 02:28:54;;;;;;;;;;;;;;;;;;5112449;28;19928;-85
2022/11/20 02:31:20;;;;;;;;;;;;;;;;;;5112726;28;19927;-85
2022/11/20 02:33:46;;;;;;;;;;;;;;;;;;5112515;28;20286;-85
2022/11/20 02:36:12;;;;;;;;;;;;;;;;;;5112243;28;20290;-86
2022/11/20 02:38:38;;;;;;;;;;;;;;;;;;5112532;28;19920;-86
2022/11/20 02:41:04;;;;;;;;;;;;;;;;;;5112254;28;19923;-86
2022/11/20 02:43:30;;;;;;;;;;;;;;;;;;5112107;28;19924;-85
2022/11/20 02:45:56;;;;;;;;;;;;;;;;;;5095268;28;19942;-86
2022/11/20 02:48:21;;;;;;;;;;;;;;;;;;5094995;28;19931;-85
2022/11/20 02:50:47;;;;;;;;;;;;;;;;;;5112118;28;20010;-86
2022/11/20 02:53:13;;;;;;;;;;;;;;;;;;5112050;28;19923;-85
2022/11/20 02:55:56;;;;;;;;;;;;;;;;;;5110488;27;20356;-84
2022/11/20 02:58:22;;;;;;;;;;;;;;;;;;5092038;28;19967;-84
2022/11/20 03:00:48;;;;;;;;;;;;;;;;;;5092051;28;19931;-85
2022/11/20 03:03:14;;;;;;;;;;;;;;;;;;5109244;28;19954;-85
2022/11/20 03:05:40;;;;;;;;;;;;;;;;;;5109024;28;19920;-85
2022/11/20 03:08:06;;;;;;;;;;;;;;;;;;5091983;28;19926;-85
2022/11/20 03:10:32;;;;;;;;;;;;;;;;;;5109084;28;19924;-85
2022/11/20 03:12:58;;;;;;;;;;;;;;;;;;5109105;28;19924;-85
2022/11/20 03:15:24;;;;;;;;;;;;;;;;;;5092092;28;20279;-85
2022/11/20 03:17:49;;;;;;;;;;;;;;;;;;5108928;28;19931;-85
2022/11/20 03:20:15;;;;;;;;;;;;;;;;;;5108898;28;19920;-85
2022/11/20 03:22:41;;;;;;;;;;;;;;;;;;5108880;28;19950;-85
2022/11/20 03:25:07;;;;;;;;;;;;;;;;;;5108633;28;20272;-84
2022/11/20 03:27:34;;;;;;;;;;;;;;;;;;5108760;28;19920;-85
2022/11/20 03:30:00;;;;;;;;;;;;;;;;;;5091592;28;20010;-85
2022/11/20 03:32:25;;;;;;;;;;;;;;;;;;5091584;28;20015;-84
2022/11/20 03:34:51;;;;;;;;;;;;;;;;;;5108703;28;19927;-85
2022/11/20 03:37:17;;;;;;;;;;;;;;;;;;5091545;28;19974;-85
2022/11/20 03:39:43;;;;;;;;;;;;;;;;;;5091445;28;20283;-85
2022/11/20 03:44:54;;;;;;;;;;;;;;;;;;5108314;28;19920;-85
2022/11/20 03:47:20;;;;;;;;;;;;;;;;;;5108321;28;19927;-85
2022/11/20 03:49:46;;;;;;;;;;;;;;;;;;5108274;28;19920;-85
2022/11/20 03:52:11;;;;;;;;;;;;;;;;;;5108246;28;20286;-85
2022/11/20 03:54:37;;;;;;;;;;;;;;;;;;5118015;27;19924;-85
2022/11/20 03:57:03;;;;;;;;;;;;;;;;;;5111373;28;19920;-85
2022/11/20 03:59:29;;;;;;;;;;;;;;;;;;5111462;28;19926;-85
2022/11/20 04:01:55;;;;;;;;;;;;;;;;;;5111389;28;19920;-85
2022/11/20 04:04:21;;;;;;;;;;;;;;;;;;5111957;28;19920;-85
2022/11/20 04:06:47;;;;;;;;;;;;;;;;;;5117719;27;19919;-85
2022/11/20 04:09:13;;;;;;;;;;;;;;;;;;5116245;28;19926;-84
2022/11/20 04:11:39;;;;;;;;;;;;;;;;;;5097787;28;19993;-85
2022/11/20 04:14:05;;;;;;;;;;;;;;;;;;5114635;28;19973;-85
2022/11/20 04:16:31;;;;;;;;;;;;;;;;;;5097499;28;20029;-84
2022/11/20 04:18:57;;;;;;;;;;;;;;;;;;5114518;28;20408;-85
2022/11/20 04:21:23;;;;;;;;;;;;;;;;;;5114467;28;20002;-85
2022/11/20 04:23:49;;;;;;;;;;;;;;;;;;5114513;28;19920;-85
2022/11/20 04:26:15;;;;;;;;;;;;;;;;;;5097378;28;20443;-85
2022/11/20 04:28:41;;;;;;;;;;;;;;;;;;5114494;28;19981;-85
2022/11/20 04:31:07;;;;;;;;;;;;;;;;;;5114345;28;19970;-85
2022/11/20 04:33:32;;;;;;;;;;;;;;;;;;5114225;28;19920;-85
2022/11/20 04:35:58;;;;;;;;;;;;;;;;;;5097048;28;19923;-84
2022/11/20 04:38:24;;;;;;;;;;;;;;;;;;5097272;28;19980;-85
2022/11/20 04:40:50;;;;;;;;;;;;;;;;;;5114020;28;20378;-85
2022/11/20 04:43:16;;;;;;;;;;;;;;;;;;5114044;28;19931;-84
2022/11/20 04:45:42;;;;;;;;;;;;;;;;;;5114209;28;19924;-84
2022/11/20 04:48:08;;;;;;;;;;;;;;;;;;5113744;28;19931;-85
2022/11/20 04:50:34;;;;;;;;;;;;;;;;;;5096870;28;19942;-84
2022/11/20 04:53:00;;;;;;;;;;;;;;;;;;5113858;28;20328;-85
2022/11/20 04:55:26;;;;;;;;;;;;;;;;;;5113470;28;19928;-85
2022/11/20 04:57:51;;;;;;;;;;;;;;;;;;5113657;28;20014;-85
2022/11/20 05:00:17;;;;;;;;;;;;;;;;;;5113596;28;19927;-85
2022/11/20 05:02:43;;;;;;;;;;;;;;;;;;5113620;28;19926;-84
2022/11/20 05:05:09;;;;;;;;;;;;;;;;;;5113744;28;20274;-84
2022/11/20 05:07:35;;;;;;;;;;;;;;;;;;5096407;28;19920;-84
2022/11/20 05:10:01;;;;;;;;;;;;;;;;;;5096895;28;19927;-84
2022/11/20 05:12:28;;;;;;;;;;;;;;;;;;5097020;28;19919;-85
2022/11/20 05:14:54;;;;;;;;;;;;;;;;;;5096558;28;19980;-85
2022/11/20 05:17:20;;;;;;;;;;;;;;;;;;5112367;28;19919;-85
2022/11/20 05:19:46;;;;;;;;;;;;;;;;;;5113143;28;20287;-85
2022/11/20 05:22:12;;;;;;;;;;;;;;;;;;5113299;28;19926;-84
2022/11/20 05:24:38;;;;;;;;;;;;;;;;;;5113552;28;20053;-84
2022/11/20 05:27:04;;;;;;;;;;;;;;;;;;5113118;28;19961;-84
2022/11/20 05:29:29;;;;;;;;;;;;;;;;;;5113109;28;19927;-85
2022/11/20 05:31:55;;;;;;;;;;;;;;;;;;5113533;28;19926;-85
2022/11/20 05:34:21;;;;;;;;;;;;;;;;;;5112861;28;20375;-85
2022/11/20 05:36:47;;;;;;;;;;;;;;;;;;5112745;28;19920;-85
2022/11/20 05:39:13;;;;;;;;;;;;;;;;;;5113045;28;19920;-85
2022/11/20 05:41:39;;;;;;;;;;;;;;;;;;5095897;28;20267;-85
2022/11/20 05:44:05;;;;;;;;;;;;;;;;;;5112936;28;20141;-86
2022/11/20 05:46:31;;;;;;;;;;;;;;;;;;5096063;28;19920;-85
2022/11/20 05:48:57;;;;;;;;;;;;;;;;;;5112999;28;19920;-85
2022/11/20 05:51:23;;;;;;;;;;;;;;;;;;5112579;28;19919;-85
2022/11/20 05:53:49;;;;;;;;;;;;;;;;;;5112426;28;19932;-85
2022/11/20 05:56:14;;;;;;;;;;;;;;;;;;5112517;28;19923;-86
2022/11/20 05:58:40;;;;;;;;;;;;;;;;;;5112599;28;19971;-85
2022/11/20 06:01:06;;;;;;;;;;;;;;;;;;5112598;28;19920;-85
2022/11/20 06:03:32;;;;;;;;;;;;;;;;;;5112327;28;19949;-85
2022/11/20 06:05:58;;;;;;;;;;;;;;;;;;5112808;28;19927;-85
2022/11/20 06:08:24;;;;;;;;;;;;;;;;;;5112617;28;19920;-85
2022/11/20 06:10:50;;;;;;;;;;;;;;;;;;5095637;28;19920;-85
2022/11/20 06:13:16;;;;;;;;;;;;;;;;;;5095360;28;19985;-85
2022/11/20 06:15:42;;;;;;;;;;;;;;;;;;5112264;28;20272;-85
2022/11/20 06:18:08;;;;;;;;;;;;;;;;;;5112189;28;20174;-86
2022/11/20 06:20:34;;;;;;;;;;;;;;;;;;5112655;28;19920;-85
2022/11/20 06:23:00;;;;;;;;;;;;;;;;;;5112507;28;20464;-85
2022/11/20 06:25:25;;;;;;;;;;;;;;;;;;5095136;28;19920;-85
2022/11/20 06:27:51;;;;;;;;;;;;;;;;;;5111997;28;20019;-85
2022/11/20 06:30:17;;;;;;;;;;;;;;;;;;5111905;28;20068;-86
2022/11/20 06:32:43;;;;;;;;;;;;;;;;;;5111978;28;20045;-85
2022/11/20 06:35:09;;;;;;;;;;;;;;;;;;5111887;28;19919;-85
2022/11/20 06:37:35;;;;;;;;;;;;;;;;;;5094971;28;19924;-85
2022/11/20 06:40:01;;;;;;;;;;;;;;;;;;5112163;28;20003;-85
2022/11/20 06:42:27;;;;;;;;;;;;;;;;;;5095159;28;19920;-84
2022/11/20 06:44:53;;;;;;;;;;;;;;;;;;5094852;28;20363;-85
2022/11/20 06:47:19;;;;;;;;;;;;;;;;;;5111629;28;19924;-85
2022/11/20 06:49:44;;;;;;;;;;;;;;;;;;5094907;28;19920;-85
2022/11/20 06:52:10;;;;;;;;;;;;;;;;;;5094907;28;19923;-85
2022/11/20 06:54:36;;;;;;;;;;;;;;;;;;5111554;28;19924;-84
2022/11/20 06:57:02;;;;;;;;;;;;;;;;;;5112103;28;20283;-85
2022/11/20 06:59:31;;;;;;;;;;;;;;;;;;5111913;28;19959;-85
2022/11/20 07:01:57;;;;;;;;;;;;;;;;;;5111608;28;19927;-85
2022/11/20 07:04:23;;;;;;;;;;;;;;;;;;5111685;28;19920;-85
2022/11/20 07:06:49;;;;;;;;;;;;;;;;;;5094842;28;19920;-85
2022/11/20 07:09:16;;;;;;;;;;;;;;;;;;5111733;28;19920;-84
2022/11/20 07:11:42;;;;;;;;;;;;;;;;;;5111864;28;19969;-84
2022/11/20 07:14:07;;;;;;;;;;;;;;;;;;5094618;28;20370;-85
2022/11/20 07:16:33;;;;;;;;;;;;;;;;;;5111673;28;19967;-86
2022/11/20 07:18:59;;;;;;;;;;;;;;;;;;5112117;28;20014;-85
2022/11/20 07:21:25;;;;;;;;;;;;;;;;;;5094955;28;19919;-85
2022/11/20 07:23:51;;;;;;;;;;;;;;;;;;5111489;28;19920;-85
2022/11/20 07:26:17;;;;;;;;;;;;;;;;;;5094613;28;19920;-85
2022/11/20 07:28:43;;;;;;;;;;;;;;;;;;5111577;28;20080;-85
2022/11/20 07:31:09;;;;;;;;;;;;;;;;;;5111849;28;19932;-85
2022/11/20 07:33:35;;;;;;;;;;;;;;;;;;5094854;28;19927;-85
2022/11/20 07:36:01;;;;;;;;;;;;;;;;;;5111524;28;19945;-85
2022/11/20 07:38:26;;;;;;;;;;;;;;;;;;5094318;28;19927;-85
2022/11/20 07:40:52;;;;;;;;;;;;;;;;;;5112279;28;19920;-85
2022/11/20 07:43:18;;;;;;;;;;;;;;;;;;5098468;28;19989;-84
2022/11/20 07:45:44;;;;;;;;;;;;;;;;;;5115116;28;20002;-84
2022/11/20 07:48:10;;;;;;;;;;;;;;;;;;5097970;28;19939;-85
2022/11/20 07:50:36;;;;;;;;;;;;;;;;;;5115253;28;20251;-85
2022/11/20 07:53:02;;;;;;;;;;;;;;;;;;5115354;28;19920;-86
2022/11/20 07:55:28;;;;;;;;;;;;;;;;;;5114729;28;19990;-86
2022/11/20 07:57:54;;;;;;;;;;;;;;;;;;5114874;28;19967;-86
2022/11/20 08:00:20;;;;;;;;;;;;;;;;;;5115003;28;20022;-87
2022/11/20 08:02:46;;;;;;;;;;;;;;;;;;5115014;28;19920;-86
2022/11/20 08:05:11;;;;;;;;;;;;;;;;;;5115008;28;19981;-86
2022/11/20 08:07:37;;;;;;;;;;;;;;;;;;5115279;28;19926;-88
2022/11/20 08:10:03;;;;;;;;;;;;;;;;;;5114775;28;19920;-85
2022/11/20 08:15:14;;;;;;;;;;;;;;;;;;5114709;28;20014;-85
2022/11/20 08:17:40;;;;;;;;;;;;;;;;;;5114532;28;20390;-85
2022/11/20 08:20:06;;;;;;;;;;;;;;;;;;5097508;28;20010;-85
2022/11/20 08:22:31;;;;;;;;;;;;;;;;;;5115033;28;19984;-85
2022/11/20 08:24:57;;;;;;;;;;;;;;;;;;5097491;28;19926;-86
2022/11/20 08:27:23;;;;;;;;;;;;;;;;;;5097321;28;19920;-86
2022/11/20 08:29:49;;;;;;;;;;;;;;;;;;5097431;28;19972;-86
2022/11/20 08:32:15;;;;;;;;;;;;;;;;;;5113974;28;19920;-85
2022/11/20 08:34:41;;;;;;;;;;;;;;;;;;5114242;28;19985;-85
2022/11/20 08:37:07;;;;;;;;;;;;;;;;;;5097314;28;20030;-85
2022/11/20 08:39:33;;;;;;;;;;;;;;;;;;5113918;28;20363;-86
2022/11/20 08:41:59;;;;;;;;;;;;;;;;;;5113839;28;19923;-85
2022/11/20 08:44:25;;;;;;;;;;;;;;;;;;5096706;28;20324;-85
2022/11/20 08:46:51;;;;;;;;;;;;;;;;;;5096870;28;19926;-85
2022/11/20 08:49:17;;;;;;;;;;;;;;;;;;5096794;28;19919;-84
2022/11/20 08:51:43;;;;;;;;;;;;;;;;;;5113779;28;19926;-85
2022/11/20 08:54:09;;;;;;;;;;;;;;;;;;5113561;28;19935;-85
2022/11/20 08:56:35;;;;;;;;;;;;;;;;;;5096598;28;19924;-88
2022/11/20 08:59:01;;;;;;;;;;;;;;;;;;5096649;28;19926;-87
2022/11/20 09:01:27;;;;;;;;;;;;;;;;;;5113654;28;20010;-87
2022/11/20 09:03:53;;;;;;;;;;;;;;;;;;5113755;28;20125;-87
2022/11/20 09:06:19;;;;;;;;;;;;;;;;;;5096502;28;20371;-86
2022/11/20 09:08:45;;;;;;;;;;;;;;;;;;5096412;28;20447;-86
2022/11/20 09:11:11;;;;;;;;;;;;;;;;;;5113608;28;19924;-85
2022/11/20 09:13:36;;;;;;;;;;;;;;;;;;5113445;28;19920;-86
2022/11/20 09:16:02;;;;;;;;;;;;;;;;;;5113107;28;19968;-86
2022/11/20 09:18:28;;;;;;;;;;;;;;;;;;5113519;28;19923;-84
2022/11/20 09:20:54;;;;;;;;;;;;;;;;;;5095788;28;20003;-86
2022/11/20 09:23:20;;;;;;;;;;;;;;;;;;5096132;28;20306;-85
2022/11/20 09:25:46;;;;;;;;;;;;;;;;;;5096108;28;19919;-86
2022/11/20 09:28:12;;;;;;;;;;;;;;;;;;5112889;28;19928;-85
2022/11/20 09:30:38;;;;;;;;;;;;;;;;;;5113130;28;20011;-86
2022/11/20 09:33:04;;;;;;;;;;;;;;;;;;5112871;28;19919;-86
2022/11/20 09:35:30;;;;;;;;;;;;;;;;;;5112726;28;19924;-88
2022/11/20 09:37:56;;;;;;;;;;;;;;;;;;5095682;28;20275;-86
2022/11/20 09:40:21;;;;;;;;;;;;;;;;;;5112667;28;19920;-86
2022/11/20 09:42:49;;;;;;;;;;;;;;;;;;5112742;28;19965;-87
2022/11/20 09:45:15;;;;;;;;;;;;;;;;;;5095593;28;20379;-84
2022/11/20 09:47:40;;;;;;;;;;;;;;;;;;5112588;28;19920;-85
2022/11/20 09:50:06;;;;;;;;;;;;;;;;;;5112421;28;19927;-85
2022/11/20 09:52:32;;;;;;;;;;;;;;;;;;5111891;28;19927;-85
2022/11/20 09:54:58;;;;;;;;;;;;;;;;;;5112358;28;19924;-85
2022/11/20 09:57:24;;;;;;;;;;;;;;;;;;5095393;28;19966;-85
2022/11/20 09:59:50;;;;;;;;;;;;;;;;;;5112303;28;20406;-85
2022/11/20 10:02:16;;;;;;;;;;;;;;;;;;5112132;28;19920;-85
2022/11/20 10:04:42;;;;;;;;;;;;;;;;;;5111745;28;19924;-85
2022/11/20 10:07:08;;;;;;;;;;;;;;;;;;5111643;28;19927;-86
2022/11/20 10:09:33;;;;;;;;;;;;;;;;;;5111790;28;19926;-86
2022/11/20 10:11:59;;;;;;;;;;;;;;;;;;5112426;28;20001;-86
2022/11/20 10:14:25;;;;;;;;;;;;;;;;;;5112414;28;19930;-89
2022/11/20 10:16:51;;;;;;;;;;;;;;;;;;5095192;28;19919;-84
2022/11/20 10:19:17;;;;;;;;;;;;;;;;;;5113230;28;20007;-85
2022/11/20 10:21:43;;;;;;;;;;;;;;;;;;5095300;28;20002;-86
2022/11/20 10:24:10;;;;;;;;;;;;;;;;;;5112192;28;19971;-87
2022/11/20 10:26:36;;;;;;;;;;;;;;;;;;5111918;28;19967;-87
2022/11/20 10:29:02;;;;;;;;;;;;;;;;;;5111948;28;19965;-87
2022/11/20 10:31:28;;;;;;;;;;;;;;;;;;5095042;28;19967;-87
2022/11/20 10:33:54;;;;;;;;;;;;;;;;;;5111770;28;20362;-85
2022/11/20 10:36:20;;;;;;;;;;;;;;;;;;5094901;28;20015;-88
2022/11/20 10:38:46;;;;;;;;;;;;;;;;;;5112346;28;19916;-89
2022/11/20 10:41:24;;;;;;;;;;;;;;;;;;5095467;28;20085;-88
2022/11/20 10:43:50;;;;;;;;;;;;;;;;;;5095302;28;19920;-88
2022/11/20 10:46:16;;;;;;;;;;;;;;;;;;5112308;28;20283;-88
2022/11/20 10:48:42;;;;;;;;;;;;;;;;;;5112266;28;19924;-87
2022/11/20 10:51:08;;;;;;;;;;;;;;;;;;5095605;28;19939;-87
2022/11/20 10:53:33;;;;;;;;;;;;;;;;;;5081182;28;20015;-86
2022/11/20 10:55:59;;;;;;;;;;;;;;;;;;5092076;28;19924;-88
2022/11/20 10:58:25;;;;;;;;;;;;;;;;;;5091725;28;20286;-89
2022/11/20 11:00:51;;;;;;;;;;;;;;;;;;5112819;28;19920;-89
2022/11/20 11:03:17;;;;;;;;;;;;;;;;;;5097460;28;20007;-87
2022/11/20 11:05:43;;;;;;;;;;;;;;;;;;5113161;28;19976;-88
2022/11/20 11:08:09;;;;;;;;;;;;;;;;;;5112972;28;20021;-88
2022/11/20 11:10:35;;;;;;;;;;;;;;;;;;5114483;28;19985;-87
2022/11/20 11:13:01;;;;;;;;;;;;;;;;;;5097387;28;19927;-87
2022/11/20 11:15:27;;;;;;;;;;;;;;;;;;5096496;28;20359;-88
2022/11/20 11:17:53;;;;;;;;;;;;;;;;;;5118543;28;19967;-86
2022/11/20 11:20:19;;;;;;;;;;;;;;;;;;5116302;28;20064;-85
2022/11/20 11:22:45;;;;;;;;;;;;;;;;;;5099282;28;20072;-85
2022/11/20 11:25:11;;;;;;;;;;;;;;;;;;5115944;28;19920;-87
2022/11/20 11:27:36;;;;;;;;;;;;;;;;;;5099324;28;19926;-87
2022/11/20 11:30:02;;;;;;;;;;;;;;;;;;5116304;28;20309;-87
2022/11/20 11:32:28;;;;;;;;;;;;;;;;;;5098958;28;19930;-86
2022/11/20 11:34:57;;;;;;;;;;;;;;;;;;5115625;28;19924;-84
2022/11/20 11:37:23;;;;;;;;;;;;;;;;;;5098566;28;19926;-86
2022/11/20 11:39:49;;;;;;;;;;;;;;;;;;5098709;28;19920;-86
2022/11/20 11:42:15;;;;;;;;;;;;;;;;;;5118255;28;19920;-86
2022/11/20 11:47:26;;;;;;;;;;;;;;;;;;5115963;28;19920;-86
2022/11/20 11:49:51;;;;;;;;;;;;;;;;;;5116235;28;20030;-86
2022/11/20 11:52:17;;;;;;;;;;;;;;;;;;5115802;28;19920;-85
2022/11/20 11:54:43;;;;;;;;;;;;;;;;;;5117148;28;19931;-85
2022/11/20 11:57:09;;;;;;;;;;;;;;;;;;5115651;28;19919;-87
2022/11/20 11:59:35;;;;;;;;;;;;;;;;;;5098353;28;19920;-87
2022/11/20 12:02:01;;;;;;;;;;;;;;;;;;5115105;28;19920;-87
2022/11/20 12:04:27;;;;;;;;;;;;;;;;;;5114941;28;19965;-86
2022/11/20 12:06:53;;;;;;;;;;;;;;;;;;5114519;28;20431;-86
2022/11/20 12:09:19;;;;;;;;;;;;;;;;;;5114749;28;19924;-86
2022/11/20 12:11:45;;;;;;;;;;;;;;;;;;5097819;28;19920;-85
2022/11/20 12:14:10;;;;;;;;;;;;;;;;;;5114531;28;19924;-85
2022/11/20 12:16:36;;;;;;;;;;;;;;;;;;5097458;28;20340;-85
2022/11/20 12:19:02;;;;;;;;;;;;;;;;;;5114616;28;19927;-85
2022/11/20 12:21:29;;;;;;;;;;;;;;;;;;5114405;28;19924;-84
2022/11/20 12:23:54;;;;;;;;;;;;;;;;;;5114297;28;19923;-85
2022/11/20 12:26:20;;;;;;;;;;;;;;;;;;5096678;28;19920;-88
2022/11/20 12:28:46;;;;;;;;;;;;;;;;;;5114306;28;19919;-84
2022/11/20 12:31:12;;;;;;;;;;;;;;;;;;5114481;28;19926;-86
2022/11/20 12:33:39;;;;;;;;;;;;;;;;;;5114531;28;19924;-88
2022/11/20 12:36:05;;;;;;;;;;;;;;;;;;5114349;28;19924;-90
2022/11/20 12:38:31;;;;;;;;;;;;;;;;;;5114756;28;20339;-91
2022/11/20 12:40:57;;;;;;;;;;;;;;;;;;5097934;28;19976;-88
2022/11/20 12:46:07;;;;;;;;;;;;;;;;;;5113740;28;19919;-88
2022/11/20 12:48:33;;;;;;;;;;;;;;;;;;5113897;28;19926;-87
2022/11/20 12:51:01;;;;;;;;;;;;;;;;;;5096937;28;19969;-87
2022/11/20 12:53:27;;;;;;;;;;;;;;;;;;5113785;28;19919;-87
2022/11/20 12:55:53;;;;;;;;;;;;;;;;;;5095833;28;19924;-87
2022/11/20 12:58:19;;;;;;;;;;;;;;;;;;5096294;28;20010;-87
2022/11/20 13:00:45;;;;;;;;;;;;;;;;;;5114084;28;19919;-89
2022/11/20 13:03:12;;;;;;;;;;;;;;;;;;5113643;28;20061;-88
2022/11/20 13:05:38;;;;;;;;;;;;;;;;;;5113663;28;19930;-87
2022/11/20 13:08:04;;;;;;;;;;;;;;;;;;5113724;28;19919;-89
2022/11/20 13:10:30;;;;;;;;;;;;;;;;;;5096526;28;20386;-87
2022/11/20 13:12:56;;;;;;;;;;;;;;;;;;5113478;28;19924;-87
2022/11/20 13:15:22;;;;;;;;;;;;;;;;;;5113470;28;19924;-88
2022/11/20 13:17:48;;;;;;;;;;;;;;;;;;5113700;28;19919;-87
2022/11/20 13:20:14;;;;;;;;;;;;;;;;;;5096626;28;19920;-88
2022/11/20 13:22:40;;;;;;;;;;;;;;;;;;5113123;28;19968;-88
2022/11/20 13:25:05;;;;;;;;;;;;;;;;;;5096500;28;19980;-90
2022/11/20 13:27:31;;;;;;;;;;;;;;;;;;5096241;28;20309;-88
2022/11/20 13:29:57;;;;;;;;;;;;;;;;;;5113086;28;19966;-86
2022/11/20 13:32:23;;;;;;;;;;;;;;;;;;5113098;28;19935;-87
2022/11/20 13:34:49;;;;;;;;;;;;;;;;;;5112746;28;20302;-87
2022/11/20 13:37:15;;;;;;;;;;;;;;;;;;5112869;28;19931;-87
2022/11/20 13:39:41;;;;;;;;;;;;;;;;;;5112092;28;19920;-88
2022/11/20 13:42:07;;;;;;;;;;;;;;;;;;5112912;28;19930;-90
2022/11/20 13:44:33;;;;;;;;;;;;;;;;;;5096022;28;20271;-88
2022/11/20 13:46:59;;;;;;;;;;;;;;;;;;5112277;28;20405;-87
2022/11/20 13:49:24;;;;;;;;;;;;;;;;;;5112470;28;20403;-86
2022/11/20 13:51:50;;;;;;;;;;;;;;;;;;5095557;28;19919;-86
2022/11/20 13:54:17;;;;;;;;;;;;;;;;;;5112056;28;19930;-87
2022/11/20 13:56:44;;;;;;;;;;;;;;;;;;5095366;28;19924;-89
2022/11/20 13:59:10;;;;;;;;;;;;;;;;;;5096090;28;20278;-87
2022/11/20 14:01:36;;;;;;;;;;;;;;;;;;5112611;28;19919;-88
2022/11/20 14:04:01;;;;;;;;;;;;;;;;;;5112762;28;19972;-87
2022/11/20 14:06:27;;;;;;;;;;;;;;;;;;5112387;28;20378;-87
2022/11/20 14:08:53;;;;;;;;;;;;;;;;;;5111905;28;19920;-86
2022/11/20 14:11:19;;;;;;;;;;;;;;;;;;5112180;28;19920;-86
2022/11/20 14:13:45;;;;;;;;;;;;;;;;;;5094973;28;19919;-87
2022/11/20 14:16:11;;;;;;;;;;;;;;;;;;5111879;28;19946;-86
2022/11/20 14:18:37;;;;;;;;;;;;;;;;;;5112210;28;19926;-87
2022/11/20 14:21:04;;;;;;;;;;;;;;;;;;5112141;28;19920;-87
2022/11/20 14:23:29;;;;;;;;;;;;;;;;;;5111825;28;20299;-87
2022/11/20 14:25:55;;;;;;;;;;;;;;;;;;5111861;28;19919;-87
2022/11/20 14:28:21;;;;;;;;;;;;;;;;;;5094963;28;19926;-87
2022/11/20 14:30:47;;;;;;;;;;;;;;;;;;5112036;28;19959;-87
2022/11/20 14:33:14;;;;;;;;;;;;;;;;;;5095154;28;20438;-87
2022/11/20 14:35:40;;;;;;;;;;;;;;;;;;5111732;28;19974;-88
2022/11/20 14:38:06;;;;;;;;;;;;;;;;;;5111880;28;19920;-87
2022/11/20 14:40:33;;;;;;;;;;;;;;;;;;5111913;28;19919;-87
2022/11/20 14:42:59;;;;;;;;;;;;;;;;;;5094921;28;20328;-88
2022/11/20 14:45:25;;;;;;;;;;;;;;;;;;5111407;28;19924;-88
2022/11/20 14:47:51;;;;;;;;;;;;;;;;;;5094891;28;19928;-87
2022/11/20 14:50:17;;;;;;;;;;;;;;;;;;5111479;28;19920;-87
2022/11/20 14:52:43;;;;;;;;;;;;;;;;;;5111449;28;19920;-87
2022/11/20 14:55:09;;;;;;;;;;;;;;;;;;5111629;28;19983;-90
2022/11/20 14:57:35;;;;;;;;;;;;;;;;;;5092213;28;20015;-88
2022/11/20 15:00:00;;;;;;;;;;;;;;;;;;5094902;28;19980;-89
2022/11/20 15:02:26;;;;;;;;;;;;;;;;;;5094915;28;19927;-89
2022/11/20 15:04:52;;;;;;;;;;;;;;;;;;5094702;28;19980;-88
2022/11/20 15:07:18;;;;;;;;;;;;;;;;;;5094387;28;19928;-88
2022/11/20 15:09:44;;;;;;;;;;;;;;;;;;5111623;28;19920;-87
2022/11/20 15:12:10;;;;;;;;;;;;;;;;;;5111826;28;19930;-87
2022/11/20 15:14:37;;;;;;;;;;;;;;;;;;5111559;28;20006;-88
2022/11/20 15:17:03;;;;;;;;;;;;;;;;;;5094273;28;19919;-87
2022/11/20 15:19:29;;;;;;;;;;;;;;;;;;5111537;28;20278;-88
2022/11/20 15:21:58;;;;;;;;;;;;;;;;;;5111516;28;20278;-87
2022/11/20 15:24:24;;;;;;;;;;;;;;;;;;5111416;28;19919;-88
2022/11/20 15:26:50;;;;;;;;;;;;;;;;;;5111107;28;19927;-88
2022/11/20 15:29:20;;;;;;;;;;;;;;;;;;5094464;28;20567;-88
2022/11/20 15:31:46;;;;;;;;;;;;;;;;;;5094163;28;20385;-87
2022/11/20 15:34:12;;;;;;;;;;;;;;;;;;5110946;28;19927;-87
2022/11/20 15:36:38;;;;;;;;;;;;;;;;;;5094035;28;19919;-88
2022/11/20 15:39:04;;;;;;;;;;;;;;;;;;5094199;28;19974;-87
2022/11/20 15:41:30;;;;;;;;;;;;;;;;;;5111215;28;20381;-88
2022/11/20 15:43:56;;;;;;;;;;;;;;;;;;5094247;28;19923;-87
2022/11/20 15:46:22;;;;;;;;;;;;;;;;;;5111326;28;20325;-87
2022/11/20 15:48:47;;;;;;;;;;;;;;;;;;5111421;28;19964;-88
2022/11/20 15:51:13;;;;;;;;;;;;;;;;;;5093964;28;19926;-88
2022/11/20 15:53:40;;;;;;;;;;;;;;;;;;5093921;28;19920;-89
2022/11/20 15:56:06;;;;;;;;;;;;;;;;;;5094528;28;19924;-87
2022/11/20 15:58:31;;;;;;;;;;;;;;;;;;5110870;28;19920;-86
2022/11/20 16:00:57;;;;;;;;;;;;;;;;;;5093892;28;19927;-88
2022/11/20 16:03:23;;;;;;;;;;;;;;;;;;5114036;28;20396;-87
2022/11/20 16:05:49;;;;;;;;;;;;;;;;;;5114428;28;19927;-86
2022/11/20 16:08:15;;;;;;;;;;;;;;;;;;5097637;28;19971;-86
2022/11/20 16:10:41;;;;;;;;;;;;;;;;;;5114545;28;19919;-85
2022/11/20 16:15:52;;;;;;;;;;;;;;;;;;5114218;28;19924;-87
2022/11/20 16:18:18;;;;;;;;;;;;;;;;;;5097195;28;20415;-87
2022/11/20 16:20:44;;;;;;;;;;;;;;;;;;5096946;28;20019;-86
2022/11/20 16:23:10;;;;;;;;;;;;;;;;;;5114188;28;20402;-87
2022/11/20 16:25:36;;;;;;;;;;;;;;;;;;5114301;28;19920;-86
2022/11/20 16:28:02;;;;;;;;;;;;;;;;;;5114186;28;19927;-86
2022/11/20 16:30:28;;;;;;;;;;;;;;;;;;5094724;28;19923;-85
2022/11/20 16:32:54;;;;;;;;;;;;;;;;;;5094136;28;20320;-86
2022/11/20 16:35:20;;;;;;;;;;;;;;;;;;5095747;28;19935;-87
2022/11/20 16:37:46;;;;;;;;;;;;;;;;;;5093883;28;20429;-87
2022/11/20 16:40:12;;;;;;;;;;;;;;;;;;5093498;28;19973;-87
2022/11/20 16:42:38;;;;;;;;;;;;;;;;;;5093472;28;19964;-87
2022/11/20 16:45:03;;;;;;;;;;;;;;;;;;5093297;28;20402;-87
2022/11/20 16:47:30;;;;;;;;;;;;;;;;;;5076601;28;19920;-87
2022/11/20 16:49:56;;;;;;;;;;;;;;;;;;5076687;28;19920;-87
2022/11/20 16:52:22;;;;;;;;;;;;;;;;;;5093361;28;19926;-86
2022/11/20 16:54:47;;;;;;;;;;;;;;;;;;5075767;28;19924;-86